Tuesday, February 20, 2018, 4:37 AM EST
Back to Local

KFDK, Frederick, Frederick Municipal Airport

Location: Frederick, MD, United States Lat: 39.417
Local Time: 4:37 AM EST ( 9:37 GMT) Lon: -77.374
Time Zone: US/Eastern Elev: 301 ft

Show me the last for .
Show Coded

Time T Td Feel RH Dir Speed Gust Alt SLP Vis Weather Sky Remarks
2018-02-20 04:15 46 46 44 100 210° 5 - 30.33 - 2 BR OVC003 None
2018-02-20 03:55 46 46 44 100 210° 5 - 30.33 - 4 BR OVC003 None
2018-02-20 03:35 46 46 44 100 210° 6 - 30.33 - 4 BR OVC003 None
2018-02-20 03:15 46 46 44 100 210° 6 - 30.33 - 5 BR OVC003 None
2018-02-20 02:55 46 46 43 100 210° 7 - 30.33 - 5 BR OVC005 None
2018-02-20 02:35 46 46 44 100 210° 6 - 30.33 - 7 OVC005 None
2018-02-20 02:15 46 46 44 100 220° 6 - 30.34 - 7 OVC005 None
2018-02-20 01:55 46 46 42 100 200° 8 - 30.34 - 10 OVC005 None
2018-02-20 01:35 46 46 43 100 210° 7 - 30.33 - 10 OVC007 None
2018-02-20 01:15 46 46 44 100 210° 6 - 30.34 - 10 OVC007 None
2018-02-20 00:55 46 46 45 100 190° 3 - 30.34 - 10 OVC007 None
2018-02-20 00:35 46 46 45 100 220° 3 - 30.35 - 10 OVC007 None
2018-02-20 00:15 46 46 - 100 - Calm - 30.35 - 10 OVC007 None
2018-02-19 23:55 46 46 - 100 - Calm - 30.35 - 10 OVC007 None
2018-02-19 23:35 46 46 45 100 190° 3 - 30.35 - 10 OVC007 None
2018-02-19 23:15 46 46 - 100 - Calm - 30.35 - 10 OVC007 None
2018-02-19 22:55 46 46 45 100 180° 3 - 30.35 - 7 OVC007 None
2018-02-19 22:35 46 46 - 100 - Calm - 30.35 - 7 OVC007 None
2018-02-19 22:15 46 46 - 100 - Calm - 30.36 - 7 OVC007 None
2018-02-19 21:55 46 46 45 100 180° 3 - 30.36 - 7 OVC007 None
2018-02-19 21:35 46 46 45 100 190° 3 - 30.36 - 7 OVC007 None
2018-02-19 21:15 46 46 45 100 170° 3 - 30.36 - 5 BR OVC005 None
2018-02-19 20:55 46 46 45 100 180° 3 - 30.36 - 5 BR OVC005 None
2018-02-19 20:47 46 46 44 100 200° 5 - 30.36 - 5 BR OVC005 None
2018-02-19 19:55 46 46 44 100 190° 5 - 30.36 - 5 BR OVC005 None
2018-02-19 18:55 46 46 44 100 200° 5 - 30.36 - 7 OVC005 None
2018-02-19 17:47 46 46 42 100 180° 8 - 30.35 - 5 BR OVC007 None
2018-02-19 16:47 46 46 42 100 180° 8 - 30.34 - 5 BR OVC007 None
2018-02-19 15:47 46 46 43 100 170° 7 - 30.35 - 2 BR OVC007 None
2018-02-19 14:47 46 46 44 100 180° 6 - 30.37 - 2 BR OVC007 None
2018-02-19 13:47 45 37 41 75 190° 7 - 30.38 - 10 OVC009 None
2018-02-19 12:47 45 37 41 75 190° 7 - 30.40 - 10 OVC013 None
2018-02-19 11:47 45 36 41 70 190° 7 - 30.45 - 10 SCT019 OVC025 None
2018-02-19 10:47 43 36 38 75 190° 8 - 30.48 - 10 SCT016 OVC045 None
2018-02-19 09:47 41 36 36 80 190° 7 - 30.48 - 10 SCT016 OVC046 None
2018-02-19 08:47 41 36 36 80 180° 7 - 30.48 - 7 OVC050 None
2018-02-19 07:47 39 36 35 86 180° 6 - 30.49 - 5 BR OVC020 None
2018-02-19 06:50 39 34 35 80 170° 6 - 30.49 - 10 -RA BKN037 BKN049 OVC080 None
2018-02-19 06:35 39 32 36 75 190° 5 - 30.49 - 10 -RA SCT037 SCT049 BKN075 None
2018-02-19 06:15 39 32 35 75 150° 6 - 30.46 - 10 BKN037 None
2018-02-19 05:55 39 32 35 75 160° 6 - 30.49 - 10 OVC039 None
2018-02-19 05:35 39 36 35 86 190° 6 - 30.49 - 10 OVC039 None
2018-02-19 05:15 39 36 35 86 170° 6 - 30.48 - 10 OVC039 None
2018-02-19 04:55 39 36 35 86 160° 6 - 30.48 - 10 OVC041 None

Support USWX by starting your Amazon purchase here.